Euro IV — IQNH — position and weather

sailwx.info

Track history (hours):
 
Tides and Currents Weather Stations Pressure Air Temp Water Temp Dewpoint Dewpoint Depression Visibility Wind Speed Wind Dir Waves Ship Positions

Euro IV

Last reported at 2014-Jul-24 16:33 UTC. Time now 2014-Jul-24 20:06 UTC.
Position N 44°04' E 009°46'.

Length 25 m; draft 1.3 m.

Type: Passenger vessel. MMSI: 247131500.

Date/timePositionNaut miles runAvg speedWind from/ knotsBaromVisibWave heightAir tempDewpointWater temp
2014-Jul-24 16:33N 44°04' E 009°46'7 6.7
2014-Jul-24 15:33N 44°09' E 009°39'4 4.2
2014-Jul-24 14:30N 44°06' E 009°44'8 7.9
2014-Jul-24 13:33N 44°04' E 009°54'0 0.0
2014-Jul-24 12:34N 44°04' E 009°54'0 0.1
2014-Jul-24 11:33N 44°04' E 009°55'3 3.4
2014-Jul-24 10:33N 44°03' E 009°50'3 3.1
2014-Jul-24 09:33N 44°06' E 009°50'3 3.3
2014-Jul-24 08:33N 44°03' E 009°51'3 3.1
2014-Jul-24 07:33N 44°04' E 009°55'4 4.0
2014-Jul-24 06:33N 44°06' E 009°50'0 0.0
2014-Jul-23 16:33N 44°06' E 009°50'5 5.2
2014-Jul-23 15:30N 44°07' E 009°42'1110.9
2014-Jul-23 14:32N 44°13' E 009°31'1413.2
2014-Jul-23 13:28N 44°20' E 009°13'1 0.2
2014-Jul-23 10:33N 44°19' E 009°13'5 4.6
2014-Jul-23 09:33N 44°16' E 009°19'1512.0
2014-Jul-23 08:20N 44°09' E 009°36'6 7.7
2014-Jul-23 07:33N 44°06' E 009°44'4 0.5
2014-Jul-22 22:21N 44°06' E 009°50'3 3.9
2014-Jul-22 21:33N 44°03' E 009°50'0 0.0
2014-Jul-22 20:33N 44°03' E 009°50'0 0.0
2014-Jul-22 19:33N 44°03' E 009°50'0 0.0
2014-Jul-22 18:33N 44°03' E 009°50'3 0.5
2014-Jul-22 12:27N 44°06' E 009°50'0 0.0
2014-Jul-22 11:33N 44°06' E 009°50'3 3.1
2014-Jul-22 10:34N 44°03' E 009°50'3 3.1
2014-Jul-22 09:33N 44°06' E 009°50'3 3.4
2014-Jul-22 08:33N 44°03' E 009°51'3 3.4
2014-Jul-22 07:33N 44°06' E 009°50'  
2014-Jul-16 13:15N 44°06' E 009°50'  
Track history (hours):
 
Tides and Currents Weather Stations Pressure Air Temp Water Temp Dewpoint Dewpoint Depression Visibility Wind Speed Wind Dir Waves Ship Positions

Euro IV

Last reported at 2014-Jul-24 16:33 UTC. Time now 2014-Jul-24 20:06 UTC.
Position N 44°04' E 009°46'.

Length 25 m; draft 1.3 m.

Type: Passenger vessel. MMSI: 247131500.

Date/timePositionNaut miles runAvg speedWind from/ knotsBaromVisibWave heightAir tempDewpointWater temp
2014-Jul-24 16:33N 44°04' E 009°46'7 6.7
2014-Jul-24 15:33N 44°09' E 009°39'4 4.2
2014-Jul-24 14:30N 44°06' E 009°44'8 7.9
2014-Jul-24 13:33N 44°04' E 009°54'0 0.0
2014-Jul-24 12:34N 44°04' E 009°54'0 0.1
2014-Jul-24 11:33N 44°04' E 009°55'3 3.4
2014-Jul-24 10:33N 44°03' E 009°50'3 3.1
2014-Jul-24 09:33N 44°06' E 009°50'3 3.3
2014-Jul-24 08:33N 44°03' E 009°51'3 3.1
2014-Jul-24 07:33N 44°04' E 009°55'4 4.0
2014-Jul-24 06:33N 44°06' E 009°50'0 0.0
2014-Jul-23 16:33N 44°06' E 009°50'5 5.2
2014-Jul-23 15:30N 44°07' E 009°42'1110.9
2014-Jul-23 14:32N 44°13' E 009°31'1413.2
2014-Jul-23 13:28N 44°20' E 009°13'1 0.2
2014-Jul-23 10:33N 44°19' E 009°13'5 4.6
2014-Jul-23 09:33N 44°16' E 009°19'1512.0
2014-Jul-23 08:20N 44°09' E 009°36'6 7.7
2014-Jul-23 07:33N 44°06' E 009°44'4 0.5
2014-Jul-22 22:21N 44°06' E 009°50'3 3.9
2014-Jul-22 21:33N 44°03' E 009°50'0 0.0
2014-Jul-22 20:33N 44°03' E 009°50'0 0.0
2014-Jul-22 19:33N 44°03' E 009°50'0 0.0
2014-Jul-22 18:33N 44°03' E 009°50'3 0.5
2014-Jul-22 12:27N 44°06' E 009°50'0 0.0
2014-Jul-22 11:33N 44°06' E 009°50'3 3.1
2014-Jul-22 10:34N 44°03' E 009°50'3 3.1
2014-Jul-22 09:33N 44°06' E 009°50'3 3.4
2014-Jul-22 08:33N 44°03' E 009°51'3 3.4
2014-Jul-22 07:33N 44°06' E 009°50'  
2014-Jul-16 13:15N 44°06' E 009°50'  

Dump ship's entire track history